Chickering American River Reserve, California Weather observations

Data are for 10 minute period ending at time listed.
 Day   Time   Solar   Ave.   Ave.  Ave.  Vector  Max.   Baro.   Total    
  of    of     Rad.   Air    Rel.  Wind   Wind   Wind  Press.  Precip.   
Year   Day            Temp.  Hum.  Speed  Dir.   Gust                    
2015   (PST)  Kw/m2    F      %     mph   deg.    mph    mb.     in.     
-------------------------------------------------------------------------
  28   15:10   0.07   48.3    41    1.4    94     6.4   822.4    0.00 
  28   15:20   0.02   47.8    42    1.9   116     7.1   822.4    0.00 
  28   15:30   0.01   47.5    42    1.7   141     6.9   822.4    0.00 
  28   15:40   0.01   47.4    43    1.7   107     6.8   822.5    0.00 
  28   15:50   0.01   47.2    42    2.1    63     8.4   822.5    0.00 
  28   16:00   0.01   46.8    45    1.5   105     5.0   822.5    0.00 
  28   16:10   0.01   46.3    46    1.4   146     8.7   822.5    0.00 
  28   16:20   0.01   46.0    47    1.6   154     5.6   822.5    0.00 
  28   16:30   0.01   45.1    50    1.0   179     2.8   822.5    0.00 
  28   16:40   0.01   44.2    52    1.6   186     5.3   822.5    0.00 
  28   16:50   0.01   43.4    54    1.6   180     5.3   822.5    0.00 
  28   17:00   0.01   43.2    54    0.9   201     5.1   822.5    0.00 
  28   17:10   0.00   42.6    57    0.4   198     2.4   822.5    0.00 
  28   17:20   0.00   41.1    62    1.1   243     2.0   822.5    0.00 
  28   17:30   0.00   39.9    66    1.8   228     2.4   822.5    0.00 
  28   17:40   0.00   38.5    68    2.2   212     3.4   822.4    0.00 
  28   17:50   0.00   37.6    70    1.9   223     2.9   822.4    0.00 
  28   18:00   0.00   37.2    69    1.4   220     2.6   822.4    0.00 
  28   18:10   0.00   37.0    69    1.9   216     2.9   822.4    0.00 
  28   18:20   0.00   36.8    69    1.5   209     3.0   822.6    0.00 
  28   18:30   0.00   36.3    70    1.7   218     2.6   822.6    0.00 
  28   18:40   0.00   36.1    70    1.2   228     2.0   822.6    0.00 
  28   18:50   0.00   35.9    70    1.1   204     3.0   822.6    0.00 
  28   19:00   0.00   35.5    71    1.3   210     2.3   822.6    0.00 
  28   19:10   0.00   35.5    71    1.1   212     2.4   822.6    0.00 
  28   19:20   0.00   35.2    71    1.3   216     2.2   822.6    0.00 
  28   19:30   0.00   35.1    71    0.5   220     4.0   822.6    0.00 
  28   19:40   0.00   37.1    63    1.6    37     8.6   822.6    0.00 
  28   19:50   0.00   40.4    54    3.9    64    13.6   822.7    0.00 
  28   20:00   0.00   41.6    52    4.1    62    14.8   822.7    0.00 
  28   20:10   100.00  99999.0   99999  99999.0   99999   99999.0   99999.0   99999.00 
  28   20:20   100.00  99999.0   99999  99999.0   99999   99999.0   99999.0   99999.00 
  28   20:30   100.00  99999.0   99999  99999.0   99999   99999.0   99999.0   99999.00 
  28   20:40   100.00  99999.0   99999  99999.0   99999   99999.0   99999.0   99999.00 
  28   20:50   100.00  99999.0   99999  99999.0   99999   99999.0   99999.0   99999.00 
  28   21:00   0.00   41.0    55    2.0    59     7.2   822.9    0.00 
  28   21:10   0.00   41.6    54    3.7    66    13.3   822.9    0.00 
  28   21:20   0.00   41.8    53    3.4    34    12.3   822.9    0.00 
  28   21:30   0.00   41.6    54    3.6    49    14.8   822.8    0.00 
  28   21:40   0.00   41.5    54    4.1    61    14.8   822.9    0.00 
  28   21:50   0.00   41.8    54    5.4    59    14.1   822.9    0.00 
  28   22:00   0.00   41.7    54    4.4    69    14.8   822.9    0.00 
  28   22:10   0.00   41.6    54    4.5    62    11.4   822.9    0.00 
  28   22:20   0.00   41.5    54    5.7    57    12.4   822.9    0.00 
  28   22:30   0.00   41.5    55    5.3    52    15.1   822.9    0.00 
  28   22:40   0.00   41.3    55    4.9    52    14.4   822.9    0.00 
  28   22:50   0.00   41.1    56    4.9    49    14.4   822.9    0.00 
  28   23:00   0.00   41.0    56    3.9    52    11.4   822.9    0.00 
  28   23:10   0.00   40.5    58    4.0    53    12.2   823.0    0.00 
  28   23:20   0.00   38.8    63    2.2    68     7.5   823.0    0.00 
  28   23:30   0.00   37.9    64    2.8    55     7.9   822.9    0.00 
  28   23:40   0.00   39.4    61    2.5    37     9.9   822.9    0.00 
  28   23:50   0.00   39.5    61    1.6    31     6.9   822.9    0.00 
  29    0:00   0.00   39.3    63    2.3    47     6.4   822.8    0.00 
  29    0:10   0.00   38.5    65    2.1    67     7.0   822.7    0.00 
  29    0:20   0.00   35.5    73    1.7   230     3.3   822.6    0.00 
  29    0:30   0.00   33.6    77    2.1   215     3.7   822.6    0.00 
  29    0:40   0.00   32.7    79    2.0   204     3.5   822.5    0.00 
  29    0:50   0.00   32.9    79    1.9   219     3.1   822.4    0.00 
  29    1:00   0.00   33.0    79    2.1   228     3.5   822.4    0.00 
  29    1:10   0.00   33.9    77    1.6   218     2.9   822.5    0.00 
  29    1:20   0.00   33.1    79    1.9   209     3.6   822.5    0.00 
  29    1:30   0.00   32.6    80    2.0   214     3.8   822.5    0.00 
  29    1:40   0.00   32.3    82    2.1   206     3.1   822.5    0.00 
  29    1:50   0.00   31.9    83    1.8   202     3.4   822.5    0.00 
  29    2:00   0.00   31.8    84    1.9   210     3.7   822.5    0.00 
  29    2:10   0.00   31.8    83    2.1   212     3.1   822.5    0.00 
  29    2:20   0.00   31.4    85    1.9   197     3.4   822.4    0.00 
  29    2:30   0.00   31.3    84    1.9   209     4.0   822.4    0.00 
  29    2:40   0.00   31.3    85    1.9   200     3.1   822.4    0.00 
  29    2:50   0.00   31.0    86    1.8   218     3.7   822.4    0.00 
  29    3:00   0.00   31.4    84    1.9   219     3.4   822.2    0.00 
  29    3:10   0.00   31.3    84    2.0   213     3.1   822.1    0.00 
  29    3:20   0.00   31.1    85    1.9   206     2.7   822.0    0.00 
  29    3:30   0.00   30.7    86    1.9   210     2.6   821.9    0.00 
  29    3:40   0.00   31.0    85    1.8   225     3.4   821.9    0.00 
  29    3:50   0.00   31.0    85    2.0   222     3.0   821.8    0.00 
  29    4:00   0.00   31.3    85    2.0   220     3.1   821.8    0.00 
  29    4:10   0.00   31.2    85    1.8   214     2.9   821.8    0.00 
  29    4:20   0.00   30.8    86    1.9   208     2.8   821.7    0.00 
  29    4:30   0.00   30.5    87    1.9   213     3.0   821.7    0.00 
  29    4:40   0.00   30.5    87    2.2   226     3.3   821.6    0.00 
  29    4:50   0.00   30.5    87    2.0   199     3.2   821.5    0.00 
  29    5:00   0.00   30.1    88    2.0   202     3.2   821.4    0.00 
  29    5:10   0.00   30.0    89    2.1   212     3.1   821.4    0.00 
  29    5:20   0.00   30.3    89    2.1   213     2.9   821.3    0.00 
  29    5:30   0.00   30.4    88    2.1   209     2.9   821.3    0.00 
  29    5:40   0.00   30.3    88    1.9   207     2.9   821.2    0.00 
  29    5:50   0.00   30.2    89    1.9   217     3.4   821.1    0.00 
  29    6:00   0.00   30.3    90    2.1   221     3.1   821.1    0.00 
  29    6:10   0.00   30.4    90    1.9   220     2.9   821.1    0.00 
  29    6:20   0.00   30.3    90    2.2   231     3.0   821.2    0.00 
  29    6:30   0.00   30.9    88    2.0   219     3.1   821.2    0.00 
  29    6:40   0.00   30.7    89    1.8   222     2.9   821.2    0.00 
  29    6:50   0.00   31.0    89    1.9   230     2.6   821.1    0.00 
  29    7:00   0.00   30.8    88    2.0   217     2.9   821.1    0.00 
  29    7:10   0.00   30.6    89    2.0   217     3.2   821.2    0.00 
  29    7:20   0.00   30.7    89    2.0   230     2.9   821.2    0.00 
  29    7:30   0.00   31.2    88    1.9   233     3.4   821.2    0.00 
  29    7:40   0.00   31.2    87    1.9   208     3.5   821.3    0.00 
  29    7:50   0.00   31.0    88    2.0   228     3.1   821.3    0.00 
  29    8:00   0.00   31.6    86    1.7   227     3.0   821.4    0.00 
  29    8:10   0.01   32.0    85    1.7   228     2.8   821.4    0.00 
  29    8:20   0.03   32.8    84    1.4   212     2.7   821.5    0.00 
  29    8:30   0.03   35.2    80    0.8   178     3.2   821.5    0.00 
  29    8:40   0.03   38.2    73    1.4    74     9.0   821.6    0.00 
  29    8:50   0.03   39.7    71    1.9    64     9.3   821.6    0.00 
  29    9:00   0.04   40.6    69    2.1    62     8.1   821.6    0.00 
  29    9:10   0.03   41.5    66    2.8    67     6.9   821.7    0.00 
  29    9:20   0.03   42.0    64    2.6    67     6.6   821.7    0.00 
  29    9:30   0.03   42.5    63    2.4    60     6.6   821.7    0.00 
  29    9:40   0.04   43.0    62    2.2    62     9.1   821.8    0.00 
  29    9:50   0.04   43.7    60    2.3    64    11.0   821.8    0.00 
  29   10:00   0.04   43.9    60    2.7    91     9.1   821.9    0.00 
  29   10:10   0.04   44.4    59    3.2    68     9.6   821.9    0.00 
  29   10:20   0.04   44.9    58    3.2    70    11.8   821.8    0.00 
  29   10:30   0.07   45.2    57    4.7    69    12.0   821.8    0.00 
  29   10:40   0.31   45.9    56    3.5    74    10.2   821.8    0.00 
  29   10:50   0.49   46.9    54    3.1    58     9.7   821.7    0.00 
  29   11:00   0.49   47.2    53    3.8    51    13.5   821.7    0.00 
  29   11:10   0.50   47.9    52    3.5    65     9.2   821.7    0.00 
  29   11:20   0.50   48.1    52    3.4    61    11.5   821.6    0.00 
  29   11:30   0.41   47.7    52    3.2    65    10.0   821.5    0.00 
  29   11:40   0.52   47.9    52    3.4    84    10.4   821.5    0.00 
  29   11:50   0.49   49.0    50    2.9    58     8.0   821.4    0.00 
  29   12:00   0.57   49.6    50    2.5    27     5.8   821.2    0.00 
  29   12:10   0.56   50.3    47    3.1    63     8.6   821.1    0.00 
  29   12:20   0.56   51.2    45    2.4    65     5.5   820.9    0.00 
  29   12:30   0.56   51.8    44    1.9    62     6.3   820.7    0.00 
  29   12:40   0.50   51.3    44    2.7    57     7.6   820.5    0.00 
  29   12:50   0.63   51.8    44    2.3    45     6.0   820.4    0.00 
  29   13:00   0.54   52.5    43    2.3    66     7.0   820.2    0.00 
  29   13:10   0.51   52.6    43    1.3    63     4.0   820.0    0.00 
  29   13:20   0.11   52.5    44    0.4    50     2.6   819.9    0.00 
  29   13:30   0.11   50.6    51    0.4   301     2.3   819.9    0.00 
  29   13:40   0.15   49.9    53    0.2   204     1.4   819.9    0.00 
  29   13:50   0.16   50.6    51    0.1   184     1.1   819.8    0.00 
  29   14:00   0.12   51.1    52    0.0   323     0.3   819.7    0.00 
  29   14:10   0.10   50.2    53    0.0   252     0.1   819.7    0.00 
  29   14:20   0.07   48.7    62    0.0     0     0.0   819.7    0.00 
  29   14:30   0.10   48.0    66    0.2   169     1.1   819.7    0.00 
  29   14:40   0.25   49.2    56    0.9   195     3.2   819.7    0.00 
  29   14:50   0.35   50.9    49    0.3   214     1.5   819.6    0.00 
  29   15:00   0.25   49.9    51    0.5   227     2.0   819.5    0.00 

Return to Chickering American River Reserve graphs page.


Western Regional Climate Center,wrcc@dri.edu